sensor_id;sensor_type;location;lat;lon;timestamp;P1;durP1;ratioP1;P2;durP2;ratioP2
64297;SDS011;50639;53.270;7.956;2023-07-13T00:00:19;7.57;;;2.40;;
64297;SDS011;50639;53.270;7.956;2023-07-13T00:02:44;4.82;;;2.72;;
64297;SDS011;50639;53.270;7.956;2023-07-13T00:05:10;6.95;;;2.67;;
64297;SDS011;50639;53.270;7.956;2023-07-13T00:07:37;9.60;;;2.88;;
64297;SDS011;50639;53.270;7.956;2023-07-13T00:10:03;7.10;;;2.60;;
64297;SDS011;50639;53.270;7.956;2023-07-13T00:12:31;3.17;;;2.33;;
64297;SDS011;50639;53.270;7.956;2023-07-13T00:14:59;6.35;;;2.40;;
64297;SDS011;50639;53.270;7.956;2023-07-13T00:17:25;7.20;;;2.90;;
64297;SDS011;50639;53.270;7.956;2023-07-13T00:19:52;7.90;;;2.43;;
64297;SDS011;50639;53.270;7.956;2023-07-13T00:22:18;4.78;;;2.85;;
64297;SDS011;50639;53.270;7.956;2023-07-13T00:24:44;4.28;;;2.60;;
64297;SDS011;50639;53.270;7.956;2023-07-13T00:27:10;4.03;;;2.40;;
64297;SDS011;50639;53.270;7.956;2023-07-13T00:29:36;6.43;;;2.63;;
64297;SDS011;50639;53.270;7.956;2023-07-13T00:32:03;5.68;;;2.67;;
64297;SDS011;50639;53.270;7.956;2023-07-13T00:34:30;7.18;;;3.00;;
64297;SDS011;50639;53.270;7.956;2023-07-13T00:36:56;6.82;;;2.90;;
64297;SDS011;50639;53.270;7.956;2023-07-13T00:39:21;6.18;;;2.65;;
64297;SDS011;50639;53.270;7.956;2023-07-13T00:41:48;8.95;;;2.70;;
64297;SDS011;50639;53.270;7.956;2023-07-13T00:44:15;9.70;;;3.35;;
64297;SDS011;50639;53.270;7.956;2023-07-13T00:46:42;7.60;;;3.05;;
64297;SDS011;50639;53.270;7.956;2023-07-13T00:49:10;4.95;;;2.85;;
64297;SDS011;50639;53.270;7.956;2023-07-13T00:52:00;5.93;;;3.13;;
64297;SDS011;50639;53.270;7.956;2023-07-13T00:54:36;7.40;;;2.78;;
64297;SDS011;50639;53.270;7.956;2023-07-13T00:57:06;5.97;;;2.80;;
64297;SDS011;50639;53.270;7.956;2023-07-13T00:59:39;6.90;;;3.10;;
64297;SDS011;50639;53.270;7.956;2023-07-13T01:02:07;7.13;;;3.40;;
64297;SDS011;50639;53.270;7.956;2023-07-13T01:04:32;9.73;;;3.58;;
64297;SDS011;50639;53.270;7.956;2023-07-13T01:06:58;13.85;;;3.30;;
64297;SDS011;50639;53.270;7.956;2023-07-13T01:09:25;7.63;;;3.20;;
64297;SDS011;50639;53.270;7.956;2023-07-13T01:11:52;6.72;;;3.17;;
64297;SDS011;50639;53.270;7.956;2023-07-13T01:14:17;6.20;;;3.05;;
64297;SDS011;50639;53.270;7.956;2023-07-13T01:16:43;9.90;;;3.40;;
64297;SDS011;50639;53.270;7.956;2023-07-13T01:19:15;7.43;;;3.25;;
64297;SDS011;50639;53.270;7.956;2023-07-13T01:22:05;8.25;;;3.35;;
64297;SDS011;50639;53.270;7.956;2023-07-13T01:24:35;7.95;;;3.08;;
64297;SDS011;50639;53.270;7.956;2023-07-13T01:27:01;10.20;;;3.50;;
64297;SDS011;50639;53.270;7.956;2023-07-13T01:29:30;8.85;;;3.25;;
64297;SDS011;50639;53.270;7.956;2023-07-13T01:31:57;9.82;;;3.42;;
64297;SDS011;50639;53.270;7.956;2023-07-13T01:34:24;9.40;;;3.10;;
64297;SDS011;50639;53.270;7.956;2023-07-13T01:36:50;8.43;;;2.95;;
64297;SDS011;50639;53.270;7.956;2023-07-13T01:39:20;10.95;;;3.20;;
64297;SDS011;50639;53.270;7.956;2023-07-13T01:41:47;12.40;;;3.45;;
64297;SDS011;50639;53.270;7.956;2023-07-13T01:44:13;8.77;;;2.92;;
64297;SDS011;50639;53.270;7.956;2023-07-13T01:46:39;8.23;;;3.15;;
64297;SDS011;50639;53.270;7.956;2023-07-13T01:49:04;10.23;;;3.17;;
64297;SDS011;50639;53.270;7.956;2023-07-13T01:51:30;10.32;;;3.22;;
64297;SDS011;50639;53.270;7.956;2023-07-13T01:53:55;13.05;;;3.17;;
64297;SDS011;50639;53.270;7.956;2023-07-13T01:56:22;9.60;;;2.97;;
64297;SDS011;50639;53.270;7.956;2023-07-13T01:58:48;8.82;;;3.05;;
64297;SDS011;50639;53.270;7.956;2023-07-13T02:01:14;9.35;;;3.38;;
64297;SDS011;50639;53.270;7.956;2023-07-13T02:03:39;13.32;;;3.38;;
64297;SDS011;50639;53.270;7.956;2023-07-13T02:06:05;10.75;;;3.47;;
64297;SDS011;50639;53.270;7.956;2023-07-13T02:08:32;10.18;;;3.28;;
64297;SDS011;50639;53.270;7.956;2023-07-13T02:10:58;11.82;;;3.38;;
64297;SDS011;50639;53.270;7.956;2023-07-13T02:13:24;8.40;;;2.92;;
64297;SDS011;50639;53.270;7.956;2023-07-13T02:15:50;8.95;;;2.90;;
64297;SDS011;50639;53.270;7.956;2023-07-13T02:18:19;12.80;;;3.28;;
64297;SDS011;50639;53.270;7.956;2023-07-13T02:20:44;9.20;;;2.92;;
64297;SDS011;50639;53.270;7.956;2023-07-13T02:23:10;8.07;;;3.00;;
64297;SDS011;50639;53.270;7.956;2023-07-13T02:25:36;9.35;;;3.25;;
64297;SDS011;50639;53.270;7.956;2023-07-13T02:28:02;10.88;;;2.90;;
64297;SDS011;50639;53.270;7.956;2023-07-13T02:30:28;11.13;;;3.25;;
64297;SDS011;50639;53.270;7.956;2023-07-13T02:32:57;15.48;;;3.33;;
64297;SDS011;50639;53.270;7.956;2023-07-13T02:35:23;9.13;;;3.40;;
64297;SDS011;50639;53.270;7.956;2023-07-13T02:37:48;8.40;;;3.08;;
64297;SDS011;50639;53.270;7.956;2023-07-13T02:40:14;12.02;;;3.30;;
64297;SDS011;50639;53.270;7.956;2023-07-13T02:42:40;14.50;;;3.63;;
64297;SDS011;50639;53.270;7.956;2023-07-13T02:45:06;12.88;;;3.67;;
64297;SDS011;50639;53.270;7.956;2023-07-13T02:47:33;12.00;;;3.15;;
64297;SDS011;50639;53.270;7.956;2023-07-13T02:49:58;10.93;;;3.33;;
64297;SDS011;50639;53.270;7.956;2023-07-13T02:52:24;13.15;;;3.22;;
64297;SDS011;50639;53.270;7.956;2023-07-13T02:54:50;15.55;;;3.17;;
64297;SDS011;50639;53.270;7.956;2023-07-13T02:57:16;15.35;;;3.17;;
64297;SDS011;50639;53.270;7.956;2023-07-13T02:59:41;22.30;;;4.07;;
64297;SDS011;50639;53.270;7.956;2023-07-13T03:02:07;15.93;;;3.75;;
64297;SDS011;50639;53.270;7.956;2023-07-13T03:04:34;19.40;;;4.20;;
64297;SDS011;50639;53.270;7.956;2023-07-13T03:07:01;14.52;;;3.17;;
64297;SDS011;50639;53.270;7.956;2023-07-13T03:09:34;10.15;;;3.50;;
64297;SDS011;50639;53.270;7.956;2023-07-13T03:12:01;16.58;;;3.70;;
64297;SDS011;50639;53.270;7.956;2023-07-13T03:14:30;15.07;;;4.15;;
64297;SDS011;50639;53.270;7.956;2023-07-13T03:16:55;13.18;;;3.60;;
64297;SDS011;50639;53.270;7.956;2023-07-13T03:19:24;10.75;;;3.30;;
64297;SDS011;50639;53.270;7.956;2023-07-13T03:21:51;14.23;;;3.83;;
64297;SDS011;50639;53.270;7.956;2023-07-13T03:24:16;12.50;;;3.35;;
64297;SDS011;50639;53.270;7.956;2023-07-13T03:26:42;14.48;;;3.85;;
64297;SDS011;50639;53.270;7.956;2023-07-13T03:29:08;18.23;;;4.13;;
64297;SDS011;50639;53.270;7.956;2023-07-13T03:31:35;16.38;;;3.72;;
64297;SDS011;50639;53.270;7.956;2023-07-13T03:34:01;13.00;;;3.35;;
64297;SDS011;50639;53.270;7.956;2023-07-13T03:36:29;17.17;;;3.55;;
64297;SDS011;50639;53.270;7.956;2023-07-13T03:38:59;11.20;;;3.50;;
64297;SDS011;50639;53.270;7.956;2023-07-13T03:41:34;14.55;;;3.80;;
64297;SDS011;50639;53.270;7.956;2023-07-13T03:43:59;12.90;;;3.75;;
64297;SDS011;50639;53.270;7.956;2023-07-13T03:46:26;14.53;;;3.27;;
64297;SDS011;50639;53.270;7.956;2023-07-13T03:48:52;15.88;;;3.67;;
64297;SDS011;50639;53.270;7.956;2023-07-13T03:51:18;19.42;;;4.20;;
64297;SDS011;50639;53.270;7.956;2023-07-13T03:53:46;14.45;;;3.70;;
64297;SDS011;50639;53.270;7.956;2023-07-13T03:56:14;15.88;;;4.00;;
64297;SDS011;50639;53.270;7.956;2023-07-13T03:58:42;14.63;;;3.85;;
64297;SDS011;50639;53.270;7.956;2023-07-13T04:01:14;16.92;;;3.80;;
64297;SDS011;50639;53.270;7.956;2023-07-13T04:06:08;15.20;;;3.72;;
64297;SDS011;50639;53.270;7.956;2023-07-13T04:08:40;12.40;;;3.58;;
64297;SDS011;50639;53.270;7.956;2023-07-13T04:11:06;14.60;;;3.65;;
64297;SDS011;50639;53.270;7.956;2023-07-13T04:13:32;18.17;;;3.92;;
64297;SDS011;50639;53.270;7.956;2023-07-13T04:15:58;15.48;;;4.05;;
64297;SDS011;50639;53.270;7.956;2023-07-13T04:18:24;16.98;;;3.83;;
64297;SDS011;50639;53.270;7.956;2023-07-13T04:20:49;16.80;;;4.55;;
64297;SDS011;50639;53.270;7.956;2023-07-13T04:23:18;13.65;;;3.97;;
64297;SDS011;50639;53.270;7.956;2023-07-13T04:25:47;16.50;;;4.13;;
64297;SDS011;50639;53.270;7.956;2023-07-13T04:28:18;17.13;;;3.72;;
64297;SDS011;50639;53.270;7.956;2023-07-13T04:30:48;14.98;;;3.72;;
64297;SDS011;50639;53.270;7.956;2023-07-13T04:33:14;14.63;;;3.93;;
64297;SDS011;50639;53.270;7.956;2023-07-13T04:38:07;12.80;;;4.43;;
64297;SDS011;50639;53.270;7.956;2023-07-13T04:40:36;23.02;;;12.98;;
64297;SDS011;50639;53.270;7.956;2023-07-13T04:43:02;28.52;;;14.50;;
64297;SDS011;50639;53.270;7.956;2023-07-13T04:45:27;15.70;;;4.65;;
64297;SDS011;50639;53.270;7.956;2023-07-13T04:47:53;12.98;;;3.45;;
64297;SDS011;50639;53.270;7.956;2023-07-13T04:50:19;16.88;;;3.78;;
64297;SDS011;50639;53.270;7.956;2023-07-13T04:52:51;11.55;;;3.70;;
64297;SDS011;50639;53.270;7.956;2023-07-13T04:55:17;14.50;;;4.15;;
64297;SDS011;50639;53.270;7.956;2023-07-13T04:57:44;16.75;;;4.13;;
64297;SDS011;50639;53.270;7.956;2023-07-13T05:00:10;14.38;;;4.10;;
64297;SDS011;50639;53.270;7.956;2023-07-13T05:02:37;11.95;;;4.00;;
64297;SDS011;50639;53.270;7.956;2023-07-13T05:05:04;15.13;;;4.43;;
64297;SDS011;50639;53.270;7.956;2023-07-13T05:07:30;13.33;;;3.87;;
64297;SDS011;50639;53.270;7.956;2023-07-13T05:09:58;16.23;;;4.35;;
64297;SDS011;50639;53.270;7.956;2023-07-13T05:12:25;18.88;;;4.13;;
64297;SDS011;50639;53.270;7.956;2023-07-13T05:14:51;13.25;;;4.13;;
64297;SDS011;50639;53.270;7.956;2023-07-13T05:17:17;13.50;;;4.47;;
64297;SDS011;50639;53.270;7.956;2023-07-13T05:19:42;21.63;;;4.65;;
64297;SDS011;50639;53.270;7.956;2023-07-13T05:22:11;14.23;;;3.50;;
64297;SDS011;50639;53.270;7.956;2023-07-13T05:24:37;16.23;;;4.25;;
64297;SDS011;50639;53.270;7.956;2023-07-13T05:27:03;13.23;;;4.35;;
64297;SDS011;50639;53.270;7.956;2023-07-13T05:29:29;15.25;;;4.30;;
64297;SDS011;50639;53.270;7.956;2023-07-13T05:31:56;14.32;;;3.75;;
64297;SDS011;50639;53.270;7.956;2023-07-13T05:34:23;14.05;;;4.53;;
64297;SDS011;50639;53.270;7.956;2023-07-13T05:36:48;16.42;;;4.03;;
64297;SDS011;50639;53.270;7.956;2023-07-13T05:39:14;15.88;;;4.15;;
64297;SDS011;50639;53.270;7.956;2023-07-13T05:41:42;16.70;;;4.20;;
64297;SDS011;50639;53.270;7.956;2023-07-13T05:44:07;16.20;;;4.43;;
64297;SDS011;50639;53.270;7.956;2023-07-13T05:46:33;16.85;;;4.55;;
64297;SDS011;50639;53.270;7.956;2023-07-13T05:48:59;14.95;;;3.97;;
64297;SDS011;50639;53.270;7.956;2023-07-13T05:51:24;12.88;;;4.20;;
64297;SDS011;50639;53.270;7.956;2023-07-13T05:53:50;19.48;;;4.35;;
64297;SDS011;50639;53.270;7.956;2023-07-13T05:56:15;15.70;;;4.20;;
64297;SDS011;50639;53.270;7.956;2023-07-13T05:58:41;18.90;;;4.38;;
64297;SDS011;50639;53.270;7.956;2023-07-13T06:01:09;17.95;;;4.55;;
64297;SDS011;50639;53.270;7.956;2023-07-13T06:03:36;15.30;;;4.32;;
64297;SDS011;50639;53.270;7.956;2023-07-13T06:06:04;16.70;;;4.73;;
64297;SDS011;50639;53.270;7.956;2023-07-13T06:11:01;16.77;;;4.50;;
64297;SDS011;50639;53.270;7.956;2023-07-13T06:13:37;13.75;;;3.53;;
64297;SDS011;50639;53.270;7.956;2023-07-13T06:16:03;14.27;;;3.97;;
64297;SDS011;50639;53.270;7.956;2023-07-13T06:18:30;14.57;;;4.70;;
64297;SDS011;50639;53.270;7.956;2023-07-13T06:20:56;12.40;;;3.83;;
64297;SDS011;50639;53.270;7.956;2023-07-13T06:23:22;17.13;;;4.40;;
64297;SDS011;50639;53.270;7.956;2023-07-13T06:25:48;16.98;;;4.57;;
64297;SDS011;50639;53.270;7.956;2023-07-13T06:28:14;16.88;;;4.85;;
64297;SDS011;50639;53.270;7.956;2023-07-13T06:30:39;12.35;;;4.28;;
64297;SDS011;50639;53.270;7.956;2023-07-13T06:33:05;12.68;;;4.38;;
64297;SDS011;50639;53.270;7.956;2023-07-13T06:35:30;15.00;;;4.32;;
64297;SDS011;50639;53.270;7.956;2023-07-13T06:37:56;12.05;;;3.90;;
64297;SDS011;50639;53.270;7.956;2023-07-13T06:40:21;18.48;;;5.25;;
64297;SDS011;50639;53.270;7.956;2023-07-13T06:42:46;15.20;;;4.75;;
64297;SDS011;50639;53.270;7.956;2023-07-13T06:45:12;14.77;;;4.28;;
64297;SDS011;50639;53.270;7.956;2023-07-13T06:47:37;13.18;;;3.95;;
64297;SDS011;50639;53.270;7.956;2023-07-13T06:50:03;14.85;;;4.50;;
64297;SDS011;50639;53.270;7.956;2023-07-13T06:52:29;16.45;;;4.35;;
64297;SDS011;50639;53.270;7.956;2023-07-13T06:54:54;21.30;;;5.07;;
64297;SDS011;50639;53.270;7.956;2023-07-13T06:57:20;17.42;;;4.72;;
64297;SDS011;50639;53.270;7.956;2023-07-13T06:59:45;16.58;;;4.63;;
64297;SDS011;50639;53.270;7.956;2023-07-13T07:02:11;17.50;;;4.80;;
64297;SDS011;50639;53.270;7.956;2023-07-13T07:04:36;13.50;;;4.30;;
64297;SDS011;50639;53.270;7.956;2023-07-13T07:07:02;19.58;;;5.30;;
64297;SDS011;50639;53.270;7.956;2023-07-13T07:09:27;13.95;;;4.32;;
64297;SDS011;50639;53.270;7.956;2023-07-13T07:11:55;18.48;;;4.65;;
64297;SDS011;50639;53.270;7.956;2023-07-13T07:14:20;15.70;;;4.57;;
64297;SDS011;50639;53.270;7.956;2023-07-13T07:16:46;14.65;;;4.50;;
64297;SDS011;50639;53.270;7.956;2023-07-13T07:19:11;14.20;;;4.50;;
64297;SDS011;50639;53.270;7.956;2023-07-13T07:21:37;13.43;;;4.50;;
64297;SDS011;50639;53.270;7.956;2023-07-13T07:24:03;14.60;;;4.38;;
64297;SDS011;50639;53.270;7.956;2023-07-13T07:26:30;13.77;;;5.07;;
64297;SDS011;50639;53.270;7.956;2023-07-13T07:28:55;17.05;;;5.45;;
64297;SDS011;50639;53.270;7.956;2023-07-13T07:31:21;12.68;;;4.30;;
64297;SDS011;50639;53.270;7.956;2023-07-13T07:33:46;14.75;;;4.88;;
64297;SDS011;50639;53.270;7.956;2023-07-13T07:36:12;13.15;;;4.40;;
64297;SDS011;50639;53.270;7.956;2023-07-13T07:38:38;11.05;;;3.78;;
64297;SDS011;50639;53.270;7.956;2023-07-13T07:41:05;13.10;;;4.38;;
64297;SDS011;50639;53.270;7.956;2023-07-13T07:43:31;14.25;;;4.03;;
64297;SDS011;50639;53.270;7.956;2023-07-13T07:45:57;14.43;;;4.22;;
64297;SDS011;50639;53.270;7.956;2023-07-13T07:48:22;14.95;;;4.10;;
64297;SDS011;50639;53.270;7.956;2023-07-13T07:50:48;15.40;;;4.18;;
64297;SDS011;50639;53.270;7.956;2023-07-13T07:53:13;13.57;;;3.90;;
64297;SDS011;50639;53.270;7.956;2023-07-13T07:55:39;11.52;;;3.92;;
64297;SDS011;50639;53.270;7.956;2023-07-13T07:58:05;12.40;;;3.65;;
64297;SDS011;50639;53.270;7.956;2023-07-13T08:00:31;12.40;;;3.70;;
64297;SDS011;50639;53.270;7.956;2023-07-13T08:02:58;13.50;;;3.50;;
64297;SDS011;50639;53.270;7.956;2023-07-13T08:05:24;11.90;;;4.00;;
64297;SDS011;50639;53.270;7.956;2023-07-13T08:07:50;11.60;;;3.30;;
64297;SDS011;50639;53.270;7.956;2023-07-13T08:10:16;13.18;;;4.15;;
64297;SDS011;50639;53.270;7.956;2023-07-13T08:12:41;12.13;;;3.53;;
64297;SDS011;50639;53.270;7.956;2023-07-13T08:15:10;10.60;;;3.15;;
64297;SDS011;50639;53.270;7.956;2023-07-13T08:17:36;9.68;;;3.20;;
64297;SDS011;50639;53.270;7.956;2023-07-13T08:20:02;9.77;;;3.72;;
64297;SDS011;50639;53.270;7.956;2023-07-13T08:22:28;14.93;;;3.47;;
64297;SDS011;50639;53.270;7.956;2023-07-13T08:24:53;12.25;;;3.55;;
64297;SDS011;50639;53.270;7.956;2023-07-13T08:27:25;10.05;;;3.33;;
64297;SDS011;50639;53.270;7.956;2023-07-13T08:29:52;13.13;;;4.05;;
64297;SDS011;50639;53.270;7.956;2023-07-13T08:32:18;8.93;;;3.08;;
64297;SDS011;50639;53.270;7.956;2023-07-13T08:37:10;11.27;;;3.67;;
64297;SDS011;50639;53.270;7.956;2023-07-13T08:39:36;12.98;;;4.07;;
64297;SDS011;50639;53.270;7.956;2023-07-13T08:42:05;10.35;;;3.25;;
64297;SDS011;50639;53.270;7.956;2023-07-13T08:44:43;9.45;;;2.92;;
64297;SDS011;50639;53.270;7.956;2023-07-13T08:47:11;12.32;;;3.53;;
64297;SDS011;50639;53.270;7.956;2023-07-13T08:49:40;13.68;;;3.20;;
64297;SDS011;50639;53.270;7.956;2023-07-13T08:54:43;12.27;;;3.35;;
64297;SDS011;50639;53.270;7.956;2023-07-13T08:57:15;7.80;;;3.10;;
64297;SDS011;50639;53.270;7.956;2023-07-13T08:59:46;12.77;;;3.15;;
64297;SDS011;50639;53.270;7.956;2023-07-13T09:05:15;10.57;;;3.20;;
64297;SDS011;50639;53.270;7.956;2023-07-13T09:10:52;11.27;;;2.90;;
64297;SDS011;50639;53.270;7.956;2023-07-13T09:13:27;10.75;;;3.65;;
64297;SDS011;50639;53.270;7.956;2023-07-13T09:16:02;7.93;;;3.05;;
64297;SDS011;50639;53.270;7.956;2023-07-13T09:18:30;11.07;;;2.80;;
64297;SDS011;50639;53.270;7.956;2023-07-13T09:21:05;11.70;;;3.20;;
64297;SDS011;50639;53.270;7.956;2023-07-13T09:23:36;9.75;;;3.40;;
64297;SDS011;50639;53.270;7.956;2023-07-13T09:26:18;11.45;;;3.08;;
64297;SDS011;50639;53.270;7.956;2023-07-13T09:29:10;12.38;;;3.35;;
64297;SDS011;50639;53.270;7.956;2023-07-13T09:31:44;9.18;;;2.92;;
64297;SDS011;50639;53.270;7.956;2023-07-13T09:34:14;8.30;;;3.20;;
64297;SDS011;50639;53.270;7.956;2023-07-13T09:36:40;7.72;;;2.78;;
64297;SDS011;50639;53.270;7.956;2023-07-13T09:44:26;8.20;;;3.00;;
64297;SDS011;50639;53.270;7.956;2023-07-13T09:46:58;7.68;;;2.80;;
64297;SDS011;50639;53.270;7.956;2023-07-13T09:49:28;9.50;;;3.30;;
64297;SDS011;50639;53.270;7.956;2023-07-13T09:51:59;9.32;;;3.13;;
64297;SDS011;50639;53.270;7.956;2023-07-13T09:54:27;8.30;;;3.22;;
64297;SDS011;50639;53.270;7.956;2023-07-13T09:56:59;12.73;;;3.20;;
64297;SDS011;50639;53.270;7.956;2023-07-13T09:59:37;10.68;;;3.47;;
64297;SDS011;50639;53.270;7.956;2023-07-13T10:04:53;8.35;;;3.25;;
64297;SDS011;50639;53.270;7.956;2023-07-13T10:07:23;15.30;;;3.55;;
64297;SDS011;50639;53.270;7.956;2023-07-13T10:09:53;11.00;;;3.70;;
64297;SDS011;50639;53.270;7.956;2023-07-13T10:12:19;8.25;;;3.13;;
64297;SDS011;50639;53.270;7.956;2023-07-13T10:14:45;9.48;;;2.58;;
64297;SDS011;50639;53.270;7.956;2023-07-13T10:17:13;5.72;;;2.58;;
64297;SDS011;50639;53.270;7.956;2023-07-13T10:19:40;7.83;;;2.60;;
64297;SDS011;50639;53.270;7.956;2023-07-13T10:22:29;6.05;;;2.63;;
64297;SDS011;50639;53.270;7.956;2023-07-13T10:25:02;6.63;;;2.60;;
64297;SDS011;50639;53.270;7.956;2023-07-13T10:27:38;4.83;;;2.30;;
64297;SDS011;50639;53.270;7.956;2023-07-13T10:30:12;7.50;;;2.63;;
64297;SDS011;50639;53.270;7.956;2023-07-13T10:32:39;8.90;;;2.63;;
64297;SDS011;50639;53.270;7.956;2023-07-13T10:35:08;6.05;;;2.60;;
64297;SDS011;50639;53.270;7.956;2023-07-13T10:37:44;7.60;;;2.60;;
64297;SDS011;50639;53.270;7.956;2023-07-13T10:40:16;4.22;;;2.30;;
64297;SDS011;50639;53.270;7.956;2023-07-13T10:42:49;5.30;;;2.40;;
64297;SDS011;50639;53.270;7.956;2023-07-13T10:45:19;6.18;;;2.50;;
64297;SDS011;50639;53.270;7.956;2023-07-13T10:47:47;8.20;;;2.50;;
64297;SDS011;50639;53.270;7.956;2023-07-13T10:50:24;4.65;;;2.35;;
64297;SDS011;50639;53.270;7.956;2023-07-13T10:52:55;7.25;;;2.92;;
64297;SDS011;50639;53.270;7.956;2023-07-13T10:55:36;4.00;;;2.30;;
64297;SDS011;50639;53.270;7.956;2023-07-13T10:58:11;5.95;;;2.63;;
64297;SDS011;50639;53.270;7.956;2023-07-13T11:00:43;7.32;;;2.70;;
64297;SDS011;50639;53.270;7.956;2023-07-13T11:03:14;6.13;;;2.55;;
64297;SDS011;50639;53.270;7.956;2023-07-13T11:05:42;5.18;;;2.40;;
64297;SDS011;50639;53.270;7.956;2023-07-13T11:10:55;11.30;;;3.30;;
64297;SDS011;50639;53.270;7.956;2023-07-13T11:18:50;6.47;;;2.97;;
64297;SDS011;50639;53.270;7.956;2023-07-13T11:23:45;8.10;;;2.67;;
64297;SDS011;50639;53.270;7.956;2023-07-13T11:31:42;4.97;;;2.80;;
64297;SDS011;50639;53.270;7.956;2023-07-13T11:34:16;4.90;;;2.67;;
64297;SDS011;50639;53.270;7.956;2023-07-13T11:36:46;7.38;;;2.70;;
64297;SDS011;50639;53.270;7.956;2023-07-13T11:42:02;3.90;;;2.38;;
64297;SDS011;50639;53.270;7.956;2023-07-13T11:44:32;7.03;;;2.85;;
64297;SDS011;50639;53.270;7.956;2023-07-13T11:47:00;5.07;;;2.40;;
64297;SDS011;50639;53.270;7.956;2023-07-13T11:49:41;4.50;;;2.40;;
64297;SDS011;50639;53.270;7.956;2023-07-13T11:52:15;4.38;;;2.45;;
64297;SDS011;50639;53.270;7.956;2023-07-13T11:54:46;6.88;;;2.80;;
64297;SDS011;50639;53.270;7.956;2023-07-13T11:57:25;6.28;;;2.70;;
64297;SDS011;50639;53.270;7.956;2023-07-13T12:00:00;5.38;;;2.75;;
64297;SDS011;50639;53.270;7.956;2023-07-13T12:02:42;1.75;;;1.60;;
64297;SDS011;50639;53.270;7.956;2023-07-13T12:05:10;2.70;;;1.70;;
64297;SDS011;50639;53.270;7.956;2023-07-13T12:07:40;1.85;;;1.60;;
64297;SDS011;50639;53.270;7.956;2023-07-13T12:12:57;2.05;;;1.70;;
64297;SDS011;50639;53.270;7.956;2023-07-13T12:15:41;1.70;;;1.60;;
64297;SDS011;50639;53.270;7.956;2023-07-13T12:18:13;2.75;;;1.90;;
64297;SDS011;50639;53.270;7.956;2023-07-13T12:20:40;5.25;;;1.77;;
64297;SDS011;50639;53.270;7.956;2023-07-13T12:23:06;5.97;;;1.90;;
64297;SDS011;50639;53.270;7.956;2023-07-13T12:25:40;2.20;;;1.70;;
64297;SDS011;50639;53.270;7.956;2023-07-13T12:30:48;4.15;;;2.10;;
64297;SDS011;50639;53.270;7.956;2023-07-13T12:33:15;4.25;;;1.90;;
64297;SDS011;50639;53.270;7.956;2023-07-13T12:35:42;3.65;;;2.00;;
64297;SDS011;50639;53.270;7.956;2023-07-13T12:38:12;2.60;;;1.90;;
64297;SDS011;50639;53.270;7.956;2023-07-13T12:40:39;3.95;;;2.05;;
64297;SDS011;50639;53.270;7.956;2023-07-13T12:43:10;6.90;;;2.00;;
64297;SDS011;50639;53.270;7.956;2023-07-13T12:45:38;4.90;;;2.00;;
64297;SDS011;50639;53.270;7.956;2023-07-13T12:48:05;8.00;;;2.60;;
64297;SDS011;50639;53.270;7.956;2023-07-13T12:50:39;5.70;;;2.30;;
64297;SDS011;50639;53.270;7.956;2023-07-13T12:53:13;6.30;;;2.80;;
64297;SDS011;50639;53.270;7.956;2023-07-13T12:55:55;12.35;;;2.75;;
64297;SDS011;50639;53.270;7.956;2023-07-13T12:58:35;6.65;;;2.40;;
64297;SDS011;50639;53.270;7.956;2023-07-13T13:01:03;6.18;;;2.50;;
64297;SDS011;50639;53.270;7.956;2023-07-13T13:06:05;5.45;;;2.47;;
64297;SDS011;50639;53.270;7.956;2023-07-13T13:08:40;4.50;;;2.50;;
64297;SDS011;50639;53.270;7.956;2023-07-13T13:11:08;4.35;;;2.35;;
64297;SDS011;50639;53.270;7.956;2023-07-13T13:13:34;5.43;;;2.50;;
64297;SDS011;50639;53.270;7.956;2023-07-13T13:18:48;6.60;;;2.50;;
64297;SDS011;50639;53.270;7.956;2023-07-13T13:23:40;5.00;;;2.17;;
64297;SDS011;50639;53.270;7.956;2023-07-13T13:26:10;4.13;;;2.20;;
64297;SDS011;50639;53.270;7.956;2023-07-13T13:28:37;6.47;;;2.63;;
64297;SDS011;50639;53.270;7.956;2023-07-13T13:31:02;7.80;;;2.78;;
64297;SDS011;50639;53.270;7.956;2023-07-13T13:33:28;5.70;;;2.25;;
64297;SDS011;50639;53.270;7.956;2023-07-13T13:35:55;6.07;;;2.58;;
64297;SDS011;50639;53.270;7.956;2023-07-13T13:38:22;7.93;;;3.10;;
64297;SDS011;50639;53.270;7.956;2023-07-13T13:40:50;9.75;;;2.28;;
64297;SDS011;50639;53.270;7.956;2023-07-13T13:43:26;7.40;;;2.80;;
64297;SDS011;50639;53.270;7.956;2023-07-13T13:45:52;18.98;;;3.70;;
64297;SDS011;50639;53.270;7.956;2023-07-13T13:48:26;7.10;;;2.85;;
64297;SDS011;50639;53.270;7.956;2023-07-13T13:50:57;8.75;;;2.88;;
64297;SDS011;50639;53.270;7.956;2023-07-13T13:53:25;7.18;;;2.70;;
64297;SDS011;50639;53.270;7.956;2023-07-13T13:55:51;4.90;;;2.45;;
64297;SDS011;50639;53.270;7.956;2023-07-13T13:58:18;4.90;;;2.60;;
64297;SDS011;50639;53.270;7.956;2023-07-13T14:00:44;9.20;;;3.55;;
64297;SDS011;50639;53.270;7.956;2023-07-13T14:03:20;6.55;;;3.15;;
64297;SDS011;50639;53.270;7.956;2023-07-13T14:05:47;6.60;;;2.75;;
64297;SDS011;50639;53.270;7.956;2023-07-13T14:08:17;7.35;;;2.50;;
64297;SDS011;50639;53.270;7.956;2023-07-13T14:10:46;5.88;;;2.60;;
64297;SDS011;50639;53.270;7.956;2023-07-13T14:13:17;6.05;;;2.83;;
64297;SDS011;50639;53.270;7.956;2023-07-13T14:15:46;4.07;;;2.50;;
64297;SDS011;50639;53.270;7.956;2023-07-13T14:18:13;7.32;;;2.90;;
64297;SDS011;50639;53.270;7.956;2023-07-13T14:20:43;5.22;;;2.75;;
64297;SDS011;50639;53.270;7.956;2023-07-13T14:23:10;5.28;;;2.65;;
64297;SDS011;50639;53.270;7.956;2023-07-13T14:25:35;5.82;;;2.97;;
64297;SDS011;50639;53.270;7.956;2023-07-13T14:28:04;5.55;;;2.60;;
64297;SDS011;50639;53.270;7.956;2023-07-13T14:30:42;6.47;;;2.55;;
64297;SDS011;50639;53.270;7.956;2023-07-13T14:33:08;5.57;;;2.78;;
64297;SDS011;50639;53.270;7.956;2023-07-13T14:35:35;7.57;;;2.75;;
64297;SDS011;50639;53.270;7.956;2023-07-13T14:38:00;3.90;;;1.92;;
64297;SDS011;50639;53.270;7.956;2023-07-13T14:40:28;5.15;;;2.30;;
64297;SDS011;50639;53.270;7.956;2023-07-13T14:42:55;4.53;;;2.60;;
64297;SDS011;50639;53.270;7.956;2023-07-13T14:45:20;3.60;;;2.50;;
64297;SDS011;50639;53.270;7.956;2023-07-13T14:47:46;3.92;;;2.60;;
64297;SDS011;50639;53.270;7.956;2023-07-13T14:50:15;5.95;;;2.80;;
64297;SDS011;50639;53.270;7.956;2023-07-13T14:52:46;5.75;;;2.55;;
64297;SDS011;50639;53.270;7.956;2023-07-13T14:55:13;5.28;;;2.45;;
64297;SDS011;50639;53.270;7.956;2023-07-13T14:57:40;6.32;;;2.92;;
64297;SDS011;50639;53.270;7.956;2023-07-13T15:00:12;7.93;;;2.80;;
64297;SDS011;50639;53.270;7.956;2023-07-13T15:02:41;4.80;;;2.40;;
64297;SDS011;50639;53.270;7.956;2023-07-13T15:05:12;5.70;;;2.60;;
64297;SDS011;50639;53.270;7.956;2023-07-13T15:07:48;10.27;;;2.63;;
64297;SDS011;50639;53.270;7.956;2023-07-13T15:10:22;4.40;;;2.20;;
64297;SDS011;50639;53.270;7.956;2023-07-13T15:12:56;6.25;;;2.60;;
64297;SDS011;50639;53.270;7.956;2023-07-13T15:15:24;6.40;;;2.58;;
64297;SDS011;50639;53.270;7.956;2023-07-13T15:17:50;5.75;;;2.90;;
64297;SDS011;50639;53.270;7.956;2023-07-13T15:22:50;8.10;;;3.08;;
64297;SDS011;50639;53.270;7.956;2023-07-13T15:25:17;3.47;;;2.40;;
64297;SDS011;50639;53.270;7.956;2023-07-13T15:27:44;7.00;;;2.58;;
64297;SDS011;50639;53.270;7.956;2023-07-13T15:30:11;5.97;;;2.53;;
64297;SDS011;50639;53.270;7.956;2023-07-13T15:32:37;5.53;;;2.25;;
64297;SDS011;50639;53.270;7.956;2023-07-13T15:35:04;5.88;;;2.67;;
64297;SDS011;50639;53.270;7.956;2023-07-13T15:37:31;13.57;;;8.07;;
64297;SDS011;50639;53.270;7.956;2023-07-13T15:39:56;11.20;;;5.18;;
64297;SDS011;50639;53.270;7.956;2023-07-13T15:42:22;5.90;;;3.00;;
64297;SDS011;50639;53.270;7.956;2023-07-13T15:44:48;10.90;;;2.90;;
64297;SDS011;50639;53.270;7.956;2023-07-13T15:47:14;8.50;;;2.70;;